ADDS METAR Data INFO
IDs: Format: Raw Decoded Include TAF

Data at: 1145 UTC 23 Jun 2018

PAMD 231051Z AUTO 27006KT 10SM OVC060 09/08 A3016 RMK AO2 SLP204 T00890078
PAMD 230951Z AUTO 27006KT 10SM OVC055 09/08 A3017 RMK AO2 SLP207 T00890078
PAMD 230851Z AUTO 25007KT 10SM OVC055 09/08 A3017 RMK AO2 SLP209 T00890078 54000
PAMD 230751Z AUTO 27006KT 10SM OVC055 09/08 A3017 RMK AO2 SLP208 T00890078 401110083
PAMD 230651Z AUTO 27006KT 10SM OVC055 09/08 A3018 RMK AO2 SLP210 T00890078
PAMD 230551Z AUTO 26007KT 10SM OVC055 09/08 A3017 RMK AO2 SLP209 60000 T00890078 10111 20089 58004
PAMD 230451Z AUTO 26009KT 10SM BKN050 OVC060 09/08 A3018 RMK AO2 SLP210 T00940078
PAMD 230351Z AUTO 27005KT 10SM OVC049 10/08 A3018 RMK AO2 SLP212 T01000083
PAMD 230251Z AUTO 25010KT 10SM OVC049 10/08 A3019 RMK AO2 SLP213 60000 T01000078 52001
PAMD 230151Z AUTO 25010KT 10SM BKN047 OVC060 11/08 A3018 RMK AO2 RAE07 SLP213 P0000 T01060078
PAMD 230108Z AUTO 26008KT 10SM FEW008 SCT018 OVC041 11/09 A3018 RMK AO2 RAE07 P0000
PAMD 230051Z AUTO VRB04KT 5SM -RA BR FEW006 BKN015 OVC025 10/09 A3018 RMK AO2 RAB17 SLP212 P0000 T01000089
PAMD 230042Z AUTO 27005KT 7SM -RA SCT006 OVC016 10/09 A3018 RMK AO2 RAB17 P0000
PAMD 230035Z AUTO VRB03KT 5SM -RA BR SCT008 OVC014 10/09 A3018 RMK AO2 RAB17 P0000
PAMD 230025Z AUTO 25005KT 3SM -RA BR BKN008 OVC012 10/09 A3018 RMK AO2 RAB17 CIG 005V011 P0000
PAMD 230017Z AUTO 26005KT 2 1/2SM -RA BR BKN008 BKN012 OVC039 10/09 A3018 RMK AO2 RAB17 CIG 006V010 P0000
PAMD 222351Z AUTO 26005KT 9SM OVC010 11/08 A3018 RMK AO2 SLP211 60000 T01060083 10106 20094 51009
PAMD 222329Z AUTO VRB05KT 10SM BKN010 BKN015 OVC020 10/08 A3018 RMK AO2
PAMD 222315Z AUTO 24006KT 10SM OVC008 11/08 A3018 RMK AO2 CIG 007V013
PAMD 222251Z AUTO 20004KT 10SM OVC010 10/08 A3017 RMK AO2 RAE04 SLP209 P0000 T01000083
PAMD 222235Z AUTO 22003KT 10SM BKN010 BKN016 OVC022 11/08 A3017 RMK AO2 RAE04 P0000
PAMD 222151Z AUTO VRB05KT 6SM -RA BR BKN022 OVC027 10/08 A3017 RMK AO2 RAB14 SLP207 P0000 T01000083
PAMD 222051Z AUTO 00000KT 10SM OVC027 09/08 A3016 RMK AO2 SLP203 T00940078 53010
PAMD 221951Z AUTO VRB05KT 10SM OVC028 11/08 A3014 RMK AO2 SLP198 T01060083
PAMD 221940Z AUTO VRB04KT 10SM OVC028 10/08 A3014 RMK AO2
PAMD 221851Z AUTO 20004KT 10SM FEW012 BKN034 OVC050 10/08 A3014 RMK AO2 SLP197 T01000078
PAMD 221848Z AUTO 21005KT 10SM SCT012 BKN034 OVC050 10/08 A3014 RMK AO2
PAMD 221843Z AUTO 19005KT 10SM SCT012 BKN018 OVC050 10/08 A3014 RMK AO2
PAMD 221812Z AUTO VRB04KT 10SM FEW009 BKN038 OVC050 10/08 A3013 RMK AO2
PAMD 221751Z AUTO 16005KT 10SM FEW030 SCT035 OVC050 10/08 A3013 RMK AO2 SLP192 T01000078 10100 20083 51015
PAMD 221651Z AUTO 17007KT 10SM OVC033 09/08 A3012 RMK AO2 SLP189 T00940078
PAMD 221621Z AUTO 17006KT 10SM SCT009 OVC037 09/08 A3010 RMK AO2
PAMD 221602Z AUTO 16005KT 10SM BKN009 OVC035 09/08 A3010 RMK AO2
PAMD 221554Z AUTO 14004KT 10SM FEW009 OVC035 09/08 A3010 RMK AO2
PAMD 221551Z AUTO 15004KT 10SM OVC035 09/08 A3010 RMK AO2 SLP182 T00940083
PAMD 221511Z AUTO 16006KT 10SM SCT011 BKN030 OVC035 09/08 A3008 RMK AO2
PAMD 221506Z AUTO 15006KT 10SM BKN009 OVC031 09/08 A3008 RMK AO2 CIG 008V013
PAMD 221451Z AUTO 15005KT 10SM FEW009 OVC033 09/08 A3008 RMK AO2 SLP178 T00940083 53015
PAMD 221356Z AUTO 15004KT 10SM FEW009 SCT015 OVC035 09/08 A3007 RMK AO2
PAMD 221351Z AUTO 15004KT 10SM FEW011 SCT015 OVC037 09/08 A3007 RMK AO2 SLP172 T00890078
PAMD 221346Z AUTO 16005KT 10SM SCT011 BKN015 OVC037 09/08 A3007 RMK AO2
PAMD 221343Z AUTO 16004KT 10SM BKN011 BKN015 OVC037 09/08 A3007 RMK AO2 CIG 008V012
PAMD 221251Z AUTO 17007KT 10SM OVC037 08/08 A3005 RMK AO2 SLP168 T00830078
PAMD 221151Z AUTO 18006KT 10SM OVC033 09/08 A3004 RMK AO2 SLP163 60000 70001 T00890078 10094 20083 53017
PAMD 221113Z AUTO 19007KT 10SM OVC031 09/08 A3003 RMK AO2
PAMD 221051Z AUTO 20007KT 10SM BKN029 OVC039 09/08 A3002 RMK AO2 SLP157 T00890078
PAMD 221045Z AUTO 19007KT 10SM BKN029 OVC039 09/08 A3002 RMK AO2
PAMD 220951Z AUTO 20012KT 10SM FEW011 OVC046 09/08 A3000 RMK AO2 SLP150 T00890078
PAMD 220936Z AUTO 20010KT 10SM SCT006 SCT011 OVC048 09/08 A3000 RMK AO2
PAMD 220930Z AUTO 20010KT 9SM SCT008 BKN011 OVC048 09/08 A3000 RMK AO2
PAMD 220919Z AUTO 19010KT 5SM BR BKN008 OVC013 09/08 A3000 RMK AO2 CIG 004V012
PAMD 220913Z AUTO 19011KT 6SM BR SCT006 OVC010 09/08 A2999 RMK AO2
PAMD 220851Z AUTO 20009KT 10SM OVC010 09/08 A2999 RMK AO2 CIG 007V016 SLP146 60000 T00890083 51030
PAMD 220836Z AUTO 20008KT 10SM OVC010 09/09 A2998 RMK AO2 CIG 005V012
PAMD 220800Z AUTO 19009KT 10SM BKN006 OVC010 09/09 A2997 RMK AO2 CIG 004V010
PAMD 220751Z AUTO 20008KT 10SM SCT006 OVC010 09/09 A2996 RMK AO2 RAE09 CIG 009V014 SLP136 P0000 T00890089 401060089
PAMD 220707Z AUTO 20011KT 5SM -RA BR OVC002 09/09 A2994 RMK AO2 CIG 002V005 P0000
PAMD 220704Z AUTO 20010KT 2SM -RA BR OVC002 09/09 A2994 RMK AO2 VIS 1V5 P0000
PAMD 220655Z AUTO 20009KT 1 1/4SM -RA BR OVC002 09/09 A2993 RMK AO2 P0000
PAMD 220653Z AUTO 20009KT 1SM -RA BR OVC002 09/09 A2993 RMK AO2 P0000
PAMD 220651Z AUTO 20009KT 3/4SM -RA BR OVC002 09/09 A2993 RMK AO2 RAB41 SLP127 P0000 T00940089
PAMD 220646Z AUTO 20012KT 1/2SM -RA FG OVC002 09/09 A2993 RMK AO2 RAB41 P0000
PAMD 220616Z AUTO 16011KT 1/4SM FG OVC002 09/09 A2991 RMK AO2
PAMD 220614Z AUTO 16010KT 1/2SM FG OVC004 09/09 A2991 RMK AO2 VIS 1/4V3
PAMD 220612Z AUTO 15009KT 3/4SM BR OVC004 09/09 A2991 RMK AO2 VIS 1/4V5
PAMD 220608Z AUTO 15011KT 1 1/2SM BR OVC004 09/09 A2991 RMK AO2
PAMD 220551Z AUTO 13011KT 10SM OVC004 09/09 A2990 RMK AO2 CIG 003V007 SLP116 60000 T00940094 10106 20094 51010
PAMD 220500Z AUTO 12011KT 10SM SCT003 OVC006 09/09 A2989 RMK AO2
PAMD 220451Z AUTO 13010KT 8SM BKN004 BKN007 OVC017 10/09 A2989 RMK AO2 RAB06E28 CIG 002V006 SLP113 P0000 T01000094
PAMD 220440Z AUTO 12010KT 7SM BKN004 BKN015 OVC021 10/09 A2989 RMK AO2 RAB06E28 CIG 002V006 P0000
PAMD 220430Z AUTO 12010KT 3SM BR FEW004 BKN015 OVC021 09/09 A2989 RMK AO2 RAB06E28 P0000
PAMD 220426Z AUTO 12010KT 2SM -RA BR SCT004 SCT012 OVC019 09/09 A2989 RMK AO2 RAB06 P0000
PAMD 220423Z AUTO 12010KT 1 3/4SM -RA BR SCT004 SCT012 OVC019 09/09 A2989 RMK AO2 VIS 1 1/4V3 RAB06 P0000
PAMD 220420Z AUTO 13010KT 1 1/2SM -RA BR SCT004 BKN014 OVC026 09/09 A2989 RMK AO2 RAB06 P0000
PAMD 220411Z AUTO 12013KT 1 1/2SM -RA BR BKN004 OVC012 10/09 A2988 RMK AO2 VIS 3/4V4 RAB06 CIG 002V008 P0000
PAMD 220408Z AUTO 12012KT 2 1/2SM -RA BR BKN004 OVC012 10/09 A2989 RMK AO2 VIS 1 1/2V5 RAB06 CIG 002V008 P0000
PAMD 220357Z AUTO 12011KT 5SM BR OVC004 10/09 A2989 RMK AO2 CIG 002V008
PAMD 220351Z AUTO 12010KT 1 1/2SM BR BKN004 OVC011 10/10 A2989 RMK AO2 RAE03 CIG 002V010 SLP111 P0000 T01000100
PAMD 220346Z AUTO 12011KT 1 3/4SM BR BKN004 OVC011 10/10 A2988 RMK AO2 VIS 3/4V5 RAE03 CIG 002V009 P0000
PAMD 220337Z AUTO 12012KT 8SM BKN006 BKN011 OVC016 10/10 A2988 RMK AO2 RAE03 CIG 004V009 P0000
PAMD 220333Z AUTO 12011KT 9SM SCT006 BKN011 OVC016 10/10 A2988 RMK AO2 RAE03 P0000
PAMD 220306Z AUTO 12012KT 10SM OVC006 10/10 A2987 RMK AO2 RAE03 CIG 002V008 P0000
PAMD 220259Z AUTO 12013KT 3SM -RA BR OVC004 10/10 A2987 RMK AO2 CIG 002V008 P0000
PAMD 220251Z AUTO 12014KT 1 1/2SM -RA BR OVC004 10/09 A2987 RMK AO2 VIS 3/4V4 RAB0157E06B44 CIG 002V010 SLP106 P0000 60000 T01000094 51007
PAMD 220249Z AUTO 12015KT 1 3/4SM -RA BR BKN004 OVC008 10/09 A2987 RMK AO2 VIS 3/4V5 RAB0157E06B44 CIG 002V006 P0000
PAMD 220238Z AUTO 12010KT 7SM OVC006 10/10 A2987 RMK AO2 RAB0157E06 CIG 003V010 P0000
PAMD 220235Z AUTO 12011KT 5SM BR BKN004 OVC009 10/10 A2987 RMK AO2 RAB0157E06 CIG 003V007 P0000
PAMD 220229Z AUTO 13011KT 5SM BR OVC007 10/10 A2987 RMK AO2 RAB0157E06 CIG 002V010 P0000
PAMD 220209Z AUTO 13012KT 4SM BR OVC003 10/09 A2987 RMK AO2 RAB0157E06 CIG 002V006 P0000
PAMD 220206Z AUTO 13013KT 2SM BR OVC003 10/09 A2987 RMK AO2 RAB0157E06 CIG 002V006 P0000
PAMD 220151Z AUTO 13013KT 1 1/2SM BR BKN003 BKN007 OVC026 10/09 A2987 RMK AO2 CIG 002V006 SLP104 T01000094
PAMD 220149Z AUTO 12012KT 1 1/2SM BR SCT003 BKN007 OVC026 10/09 A2987 RMK AO2
PAMD 220146Z AUTO 13012KT 2 1/2SM BR SCT005 BKN009 OVC026 10/09 A2986 RMK AO2 VIS 1 1/4V4 CIG 006V014
PAMD 220144Z AUTO 13014KT 3SM BR BKN005 BKN011 OVC026 10/09 A2986 RMK AO2 CIG 002V008
PAMD 220141Z AUTO 13014G22KT 5SM BR BKN008 BKN013 OVC026 10/09 A2986 RMK AO2 CIG 005V010
PAMD 220134Z AUTO 13017G22KT 9SM FEW008 BKN013 OVC038 10/09 A2986 RMK AO2
PAMD 220128Z AUTO 12015KT 10SM FEW013 BKN017 OVC038 10/09 A2986 RMK AO2
PAMD 220113Z AUTO 12013KT 10SM FEW008 BKN013 OVC036 10/09 A2986 RMK AO2
PAMD 220110Z AUTO 12014KT 10SM SCT010 BKN015 OVC036 10/10 A2986 RMK AO2
PAMD 220059Z AUTO 12014KT 10SM FEW004 BKN011 OVC014 10/09 A2986 RMK AO2 CIG 007V012
PAMD 220051Z AUTO 12015KT 10SM SCT004 OVC009 10/10 A2986 RMK AO2 RAE25 CIG 007V012 SLP102 P0000 T01000100
PAMD 220047Z AUTO 12015KT 9SM SCT002 BKN009 OVC014 11/10 A2985 RMK AO2 RAE25 CIG 007V012 P0000
PAMD 220038Z AUTO 12013KT 4SM BR BKN002 OVC007 11/10 A2985 RMK AO2 RAE25 P0000
PAMD 220030Z AUTO 12014KT 2 1/2SM BR BKN002 OVC007 11/11 A2985 RMK AO2 RAE25 P0000
PAMD 220025Z AUTO 11015KT 3SM BR OVC002 11/11 A2985 RMK AO2 RAE25 P0000
PAMD 220022Z AUTO 11015KT 1 1/2SM -RA BR OVC002 11/11 A2985 RMK AO2 P0000
PAMD 220020Z AUTO 10015KT 1SM -RA BR OVC002 11/11 A2985 RMK AO2 P0000
PAMD 220018Z AUTO 10016KT 3/4SM -RA BR OVC002 11/10 A2985 RMK AO2 P0000
PAMD 212358Z AUTO 09014KT 1/2SM -RA FG OVC002 11/10 A2985 RMK AO2 P0000
PAMD 212355Z AUTO 09014KT 3/4SM -RA BR OVC002 11/10 A2985 RMK AO2 P0000
PAMD 212351Z AUTO 09015KT 1/2SM -RA FG OVC002 11/10 A2985 RMK AO2 SLP099 P0001 60001 T01060100 10106 20100 51003